Time;durP1;ratioP1;P1;durP2;ratioP2;P2;SDS_P1;SDS_P2;PMS_P1;PMS_P2;Temp;Humidity;BMP_temperature;BMP_pressure;BME280_temperature;BME280_humidity;BME280_pressure;Samples;Min_cycle;Max_cycle;Signal;HPM_P1;HPM_P2
2022/04/28 00:01:24;;;;;;;;;37.50;27.00;;;;;14.28;44.25;101803.50;5036668;28;73176;-62
2022/04/28 00:03:51;;;;;;;;;31.75;26.25;;;;;14.26;44.49;101799.19;5033010;28;68524;-62
2022/04/28 00:06:16;;;;;;;;;30.00;24.00;;;;;14.21;44.28;101797.50;5033957;28;45461;-62
2022/04/28 00:08:42;;;;;;;;;39.50;30.25;;;;;14.18;44.65;101794.97;5031799;28;67327;-62
2022/04/28 00:11:11;;;;;;;;;29.75;25.75;;;;;14.15;44.61;101795.06;5022293;28;45641;-62
2022/04/28 00:13:36;;;;;;;;;29.75;26.25;;;;;14.13;44.47;101796.88;5025909;28;45325;-62
2022/04/28 00:16:02;;;;;;;;;33.25;30.25;;;;;14.08;44.76;101792.59;5031641;28;72118;-62
2022/04/28 00:18:27;;;;;;;;;31.50;30.25;;;;;14.07;44.56;101796.16;5032820;28;45406;-63
2022/04/28 00:20:53;;;;;;;;;30.25;26.00;;;;;14.01;45.04;101798.03;5038929;28;45335;-62
2022/04/28 00:23:18;;;;;;;;;33.25;26.75;;;;;13.99;45.37;101802.47;5032048;28;69369;-63
2022/04/28 00:25:43;;;;;;;;;33.75;27.00;;;;;13.95;44.89;101790.28;5036031;28;73154;-62
2022/04/28 00:28:09;;;;;;;;;35.75;31.00;;;;;13.92;45.52;101800.88;5028396;28;54154;-62
2022/04/28 00:30:34;;;;;;;;;33.75;28.75;;;;;13.89;44.66;101794.81;5033040;28;61168;-62
2022/04/28 00:32:59;;;;;;;;;42.75;31.50;;;;;13.85;45.14;101794.88;5032985;28;68142;-62
2022/04/28 00:35:25;;;;;;;;;40.50;32.00;;;;;13.84;45.21;101789.66;5027326;28;49064;-61
2022/04/28 00:37:50;;;;;;;;;34.00;28.25;;;;;13.79;45.52;101792.41;5024787;28;75549;-62
2022/04/28 00:40:16;;;;;;;;;31.25;26.25;;;;;13.79;45.46;101789.78;5040399;28;72994;-62
2022/04/28 00:42:41;;;;;;;;;35.50;28.00;;;;;13.78;45.00;101782.78;5032350;28;68393;-61
2022/04/28 00:45:07;;;;;;;;;43.00;31.75;;;;;13.76;45.35;101794.25;5033675;28;72120;-63
2022/04/28 00:53:00;;;;;;;;;35.50;29.50;;;;;13.64;45.92;101791.00;5030469;28;45532;-63
2022/04/28 00:55:26;;;;;;;;;36.00;27.00;;;;;13.63;45.81;101785.75;5029399;28;45561;-62
2022/04/28 00:57:52;;;;;;;;;39.75;29.25;;;;;13.57;45.23;101778.88;5031088;28;47367;-62
2022/04/28 01:00:17;;;;;;;;;42.25;31.75;;;;;13.55;46.43;101785.09;5016463;28;55922;-62
2022/04/28 01:02:43;;;;;;;;;37.00;28.75;;;;;13.52;45.32;101788.63;5031014;28;45381;-62
2022/04/28 01:05:09;;;;;;;;;37.75;30.50;;;;;13.45;45.91;101777.38;5040881;28;45395;-62
2022/04/28 01:07:35;;;;;;;;;35.25;31.25;;;;;13.42;46.07;101782.72;5034320;28;47145;-62
2022/04/28 01:10:00;;;;;;;;;35.25;28.50;;;;;13.40;46.03;101781.00;5031474;28;45526;-61
2022/04/28 01:12:26;;;;;;;;;28.50;24.25;;;;;13.40;45.92;101783.66;5032398;28;69400;-62
2022/04/28 01:14:51;;;;;;;;;33.75;29.50;;;;;13.38;46.04;101788.06;5037859;28;73137;-62
2022/04/28 01:17:17;;;;;;;;;36.00;32.00;;;;;13.35;46.18;101785.50;5029650;28;46485;-62
2022/04/28 01:19:42;;;;;;;;;47.50;30.00;;;;;13.33;45.97;101782.06;5038865;28;66241;-61
2022/04/28 01:22:08;;;;;;;;;27.50;24.50;;;;;13.29;46.10;101781.22;5027623;28;65921;-61
2022/04/28 01:24:33;;;;;;;;;37.75;30.25;;;;;13.25;45.94;101774.31;5036952;28;45620;-61
2022/04/28 01:26:59;;;;;;;;;41.25;29.50;;;;;13.20;45.76;101778.78;5035575;28;46927;-63
2022/04/28 01:29:24;;;;;;;;;35.00;31.50;;;;;13.13;46.71;101782.44;5029588;28;45229;-62
2022/04/28 01:31:50;;;;;;;;;33.75;29.00;;;;;13.09;46.18;101785.13;5036892;28;69282;-62
2022/04/28 01:34:15;;;;;;;;;33.50;28.50;;;;;13.05;46.34;101783.47;5033679;28;45765;-62
2022/04/28 01:36:41;;;;;;;;;36.25;30.75;;;;;13.01;46.64;101781.78;5036574;28;46117;-62
2022/04/28 01:39:07;;;;;;;;;29.25;28.25;;;;;12.98;46.67;101780.97;5029349;28;58036;-62
2022/04/28 01:41:33;;;;;;;;;41.75;30.75;;;;;12.94;46.67;101774.94;5030951;28;45167;-63
2022/04/28 01:43:59;;;;;;;;;43.25;29.75;;;;;12.92;46.99;101779.34;5036241;28;45610;-61
2022/04/28 01:46:24;;;;;;;;;42.25;28.00;;;;;12.89;46.87;101772.41;5042611;28;75856;-62
2022/04/28 01:48:49;;;;;;;;;37.00;28.25;;;;;12.87;47.27;101778.56;5036714;28;73274;-62
2022/04/28 01:56:43;;;;;;;;;37.00;25.75;;;;;12.79;47.57;101784.00;5037928;28;45384;-62
2022/04/28 01:59:08;;;;;;;;;39.00;29.50;;;;;12.76;47.10;101775.31;5033493;28;45305;-61
2022/04/28 02:01:34;;;;;;;;;36.50;31.75;;;;;12.71;47.38;101780.63;5032643;28;59670;-61
2022/04/28 02:03:59;;;;;;;;;37.00;29.25;;;;;12.66;47.11;101786.00;5029072;28;45384;-61
2022/04/28 02:06:25;;;;;;;;;41.25;30.75;;;;;12.62;47.29;101778.19;5038306;28;53292;-61
2022/04/28 02:08:51;;;;;;;;;34.25;26.50;;;;;12.57;47.49;101782.66;5029426;28;45744;-61
2022/04/28 02:11:16;;;;;;;;;38.50;28.00;;;;;12.54;47.14;101784.44;5028077;28;45346;-62
2022/04/28 02:13:42;;;;;;;;;34.00;25.75;;;;;12.50;47.28;101779.28;5035572;28;45659;-62
2022/04/28 02:16:07;;;;;;;;;32.50;24.50;;;;;12.46;47.49;101788.09;5035767;28;59884;-62
2022/04/28 02:18:33;;;;;;;;;32.00;26.25;;;;;12.44;48.08;101784.66;5029226;28;45352;-62
2022/04/28 02:20:58;;;;;;;;;33.25;27.50;;;;;12.40;47.96;101778.59;5031290;28;69268;-61
2022/04/28 02:23:24;;;;;;;;;31.25;25.50;;;;;12.38;47.69;101780.38;5033429;28;56031;-61
2022/04/28 02:25:49;;;;;;;;;28.25;26.00;;;;;12.36;47.98;101784.78;5028238;28;74582;-61
2022/04/28 02:28:14;;;;;;;;;35.00;26.00;;;;;12.34;48.39;101787.44;5026496;28;45298;-61
2022/04/28 02:30:40;;;;;;;;;35.00;26.00;;;;;12.31;48.14;101784.84;5022545;28;69496;-61
2022/04/28 02:33:11;;;;;;;;;29.25;24.00;;;;;12.30;48.17;101785.75;5030451;28;45529;-61
2022/04/28 02:35:37;;;;;;;;;35.75;27.00;;;;;12.28;47.89;101787.53;5050382;28;47367;-61
2022/04/28 02:38:03;;;;;;;;;29.50;23.00;;;;;12.25;47.88;101792.84;5030161;28;45439;-61
2022/04/28 02:40:28;;;;;;;;;35.00;24.00;;;;;12.22;48.03;101792.91;5038450;28;47125;-61
2022/04/28 02:42:53;;;;;;;;;29.75;22.75;;;;;12.21;48.38;101793.78;5034565;28;72054;-62
2022/04/28 02:45:31;;;;;;;;;28.25;22.25;;;;;12.19;48.87;101797.34;5033749;28;62784;-61
2022/04/28 02:47:56;;;;;;;;;30.75;25.25;;;;;12.17;48.31;101801.75;5026344;28;70076;-61
2022/04/28 02:50:22;;;;;;;;;31.75;24.25;;;;;12.14;48.68;101802.66;5026805;28;45415;-61
2022/04/28 02:52:50;;;;;;;;;30.75;25.00;;;;;12.11;48.26;101800.06;5036010;28;45568;-61
2022/04/28 02:55:16;;;;;;;;;23.75;22.00;;;;;12.07;48.65;101798.38;5039546;28;46370;-61
2022/04/28 02:57:41;;;;;;;;;32.00;27.75;;;;;12.04;48.85;101801.06;5024336;28;45417;-61
2022/04/28 03:00:07;;;;;;;;;37.50;28.50;;;;;11.99;48.47;101792.38;5037532;28;45433;-60
2022/04/28 03:02:33;;;;;;;;;33.00;20.75;;;;;11.96;48.80;101803.81;5028869;28;45517;-60
2022/04/28 03:04:58;;;;;;;;;26.50;21.25;;;;;11.92;48.86;101810.00;5030820;28;71065;-60
2022/04/28 03:12:51;;;;;;;;;29.50;20.25;;;;;11.82;48.83;101806.59;5035037;28;45375;-61
2022/04/28 03:15:17;;;;;;;;;28.25;23.25;;;;;11.80;48.62;101808.38;5021659;28;57823;-60
2022/04/28 03:17:43;;;;;;;;;27.25;24.25;;;;;11.77;48.88;101811.03;5036219;28;45486;-60
2022/04/28 03:20:09;;;;;;;;;24.50;22.25;;;;;11.76;49.01;101809.34;5036292;28;64631;-60
2022/04/28 03:22:36;;;;;;;;;33.00;26.25;;;;;11.72;48.97;101813.75;5033056;28;45509;-60
2022/04/28 03:25:04;;;;;;;;;32.25;26.00;;;;;11.70;49.83;101817.28;5038156;28;46996;-60
2022/04/28 03:27:32;;;;;;;;;21.50;21.50;;;;;11.66;49.50;101805.09;5030512;28;45439;-61
2022/04/28 03:29:58;;;;;;;;;28.75;22.25;;;;;11.63;49.80;101803.38;5036888;28;45502;-60
2022/04/28 03:32:23;;;;;;;;;36.50;25.25;;;;;11.63;49.24;101802.50;5036842;28;48823;-61
2022/04/28 03:34:49;;;;;;;;;36.00;23.50;;;;;11.58;50.08;101798.22;5028050;28;70713;-60
2022/04/28 03:37:15;;;;;;;;;28.75;24.75;;;;;11.58;49.75;101807.84;5030749;28;47178;-60
2022/04/28 03:39:40;;;;;;;;;34.00;27.00;;;;;11.57;49.31;101811.34;5030189;28;45270;-60
2022/04/28 03:42:06;;;;;;;;;28.25;24.75;;;;;11.57;50.22;101808.72;5036538;28;45537;-61
2022/04/28 03:44:32;;;;;;;;;32.75;25.75;;;;;11.55;49.60;101819.22;5030275;28;45609;-60
2022/04/28 03:46:57;;;;;;;;;32.50;27.50;;;;;11.52;49.57;101813.16;5037119;28;45547;-60
2022/04/28 03:49:23;;;;;;;;;35.00;27.75;;;;;11.49;49.54;101811.47;5025224;28;45343;-60
2022/04/28 03:51:48;;;;;;;;;39.25;24.50;;;;;11.46;49.86;101811.50;5037062;28;45519;-60
2022/04/28 03:54:14;;;;;;;;;30.50;25.00;;;;;11.45;49.49;101806.25;5032698;28;64336;-60
2022/04/28 03:56:39;;;;;;;;;30.50;26.25;;;;;11.43;49.67;101808.91;5027607;28;66146;-60
2022/04/28 03:59:05;;;;;;;;;38.50;28.75;;;;;11.40;49.73;101807.19;5032782;28;57641;-60
2022/04/28 04:01:30;;;;;;;;;36.50;27.25;;;;;11.38;50.02;101818.56;5031459;28;45623;-60
2022/04/28 04:03:55;;;;;;;;;41.75;32.50;;;;;11.35;50.02;101824.72;5033651;28;46138;-60
2022/04/28 04:06:21;;;;;;;;;30.00;26.00;;;;;11.32;50.34;101818.66;5036128;28;45483;-60
2022/04/28 04:08:46;;;;;;;;;35.25;25.50;;;;;11.31;50.38;101820.41;5031236;28;45519;-59
2022/04/28 04:11:12;;;;;;;;;34.25;27.50;;;;;11.29;50.32;101822.19;5028385;28;45708;-59
2022/04/28 04:13:38;;;;;;;;;36.00;29.50;;;;;11.27;50.59;101820.47;5035376;28;46005;-60
2022/04/28 04:16:04;;;;;;;;;32.50;26.25;;;;;11.22;50.78;101831.00;5035317;28;45451;-60
2022/04/28 04:18:29;;;;;;;;;41.25;28.75;;;;;11.20;50.60;101827.53;5028173;28;45431;-59
2022/04/28 04:20:55;;;;;;;;;36.25;27.50;;;;;11.19;50.72;101828.41;5035647;28;45291;-60
2022/04/28 04:23:20;;;;;;;;;41.75;28.25;;;;;11.17;51.02;101822.31;5027147;28;64893;-60
2022/04/28 04:25:46;;;;;;;;;40.25;29.00;;;;;11.17;50.82;101824.94;5031869;28;45302;-59
2022/04/28 04:28:11;;;;;;;;;37.25;25.75;;;;;11.19;50.85;101833.66;5024535;28;45428;-60
2022/04/28 04:33:20;;;;;;;;;37.75;26.25;;;;;11.17;50.55;101833.69;5038584;28;45474;-60
2022/04/28 04:35:46;;;;;;;;;36.00;28.50;;;;;11.17;50.61;101838.03;5033787;28;45407;-59
2022/04/28 04:38:12;;;;;;;;;31.50;26.25;;;;;11.15;50.55;101840.69;5048751;28;45307;-59
2022/04/28 04:40:37;;;;;;;;;35.25;26.50;;;;;11.15;50.84;101843.28;5040853;28;60231;-60
2022/04/28 04:43:03;;;;;;;;;37.75;27.50;;;;;11.13;51.10;101845.06;5036615;28;62424;-60
2022/04/28 04:45:28;;;;;;;;;32.50;27.00;;;;;11.12;51.05;101850.31;5037705;28;45339;-60
2022/04/28 04:47:54;;;;;;;;;35.50;30.00;;;;;11.12;51.03;101848.59;5034771;28;58014;-59
2022/04/28 04:50:19;;;;;;;;;36.00;28.50;;;;;11.09;51.02;101846.00;5039572;28;45335;-60
2022/04/28 04:52:45;;;;;;;;;44.75;34.25;;;;;11.09;51.39;101855.63;5034466;28;61691;-60
2022/04/28 04:55:10;;;;;;;;;39.75;28.50;;;;;11.08;52.00;101857.34;5029992;28;59992;-59
2022/04/28 04:57:35;;;;;;;;;33.00;27.50;;;;;11.09;51.13;101853.88;5034093;28;64152;-60
2022/04/28 05:00:02;;;;;;;;;41.00;34.50;;;;;11.11;51.63;101854.72;5040238;28;45306;-59
2022/04/28 05:02:28;;;;;;;;;40.00;31.00;;;;;11.13;51.48;101852.06;5032283;28;45986;-60
2022/04/28 05:04:53;;;;;;;;;41.50;30.50;;;;;11.14;51.05;101853.81;5033396;28;45407;-60
2022/04/28 05:07:19;;;;;;;;;32.50;28.00;;;;;11.13;51.31;101852.06;5026112;28;61676;-59
2022/04/28 05:09:44;;;;;;;;;41.50;33.25;;;;;11.18;51.65;101863.38;5040035;28;64768;-60
2022/04/28 05:12:09;;;;;;;;;36.00;29.00;;;;;11.22;51.92;101867.69;5039228;28;70302;-60
2022/04/28 05:14:35;;;;;;;;;35.00;28.00;;;;;11.25;51.25;101864.19;5039089;28;64160;-60
2022/04/28 05:17:00;;;;;;;;;40.75;30.25;;;;;11.28;51.36;101861.50;5039264;28;50089;-60
2022/04/28 05:19:26;;;;;;;;;40.00;33.50;;;;;11.30;51.81;101872.84;5034624;28;45423;-59
2022/04/28 05:21:51;;;;;;;;;37.75;28.75;;;;;11.34;51.44;101871.94;5034573;28;45513;-60
2022/04/28 05:24:17;;;;;;;;;47.00;30.25;;;;;11.36;51.90;101870.16;5037363;28;45422;-59
2022/04/28 05:26:42;;;;;;;;;40.75;33.25;;;;;11.38;51.25;101879.75;5039415;28;45473;-60
2022/04/28 05:29:08;;;;;;;;;39.25;31.50;;;;;11.41;51.42;101881.44;5031821;28;45427;-59
2022/04/28 05:31:33;;;;;;;;;34.25;27.00;;;;;11.42;51.31;101884.94;5031432;28;59920;-59
2022/04/28 05:33:58;;;;;;;;;42.50;30.75;;;;;11.44;51.19;101886.66;5045316;28;65607;-59
2022/04/28 05:36:24;;;;;;;;;39.00;32.00;;;;;11.45;51.30;101896.25;5033679;28;59230;-59
2022/04/28 05:38:50;;;;;;;;;40.00;31.75;;;;;11.49;50.84;101900.59;5037105;28;45400;-59
2022/04/28 05:41:15;;;;;;;;;39.25;32.75;;;;;11.50;51.16;101897.06;5037300;28;45269;-60
2022/04/28 05:46:25;;;;;;;;;43.25;32.50;;;;;11.55;50.99;101902.25;5033179;28;45308;-60
2022/04/28 05:48:51;;;;;;;;;49.25;36.00;;;;;11.54;50.76;101901.41;5034271;28;45615;-60
2022/04/28 05:51:18;;;;;;;;;44.50;33.25;;;;;11.55;51.12;101905.75;5029752;28;50362;-60
2022/04/28 05:53:43;;;;;;;;;40.25;32.50;;;;;11.57;51.32;101905.72;5035647;28;45506;-60
2022/04/28 05:56:08;;;;;;;;;40.25;33.00;;;;;11.59;50.89;101909.19;5027615;28;59574;-60
2022/04/28 05:58:34;;;;;;;;;41.25;30.75;;;;;11.60;50.91;101910.94;5031377;28;45368;-59
2022/04/28 06:00:59;;;;;;;;;39.50;32.25;;;;;11.61;51.30;101909.16;5036866;28;46148;-60
2022/04/28 06:03:25;;;;;;;;;45.25;32.50;;;;;11.61;51.29;101912.66;5029209;28;45667;-60
2022/04/28 06:05:50;;;;;;;;;43.75;33.00;;;;;11.62;51.11;101917.03;5033060;28;45502;-60
2022/04/28 06:08:16;;;;;;;;;45.25;31.50;;;;;11.64;50.92;101917.00;5037245;28;45711;-59
2022/04/28 06:10:41;;;;;;;;;40.50;33.50;;;;;11.64;51.52;101912.63;5038973;28;65379;-60
2022/04/28 06:13:08;;;;;;;;;45.00;32.00;;;;;11.67;51.20;101917.84;5033754;28;56137;-59
2022/04/28 06:15:33;;;;;;;;;42.75;33.00;;;;;11.69;51.58;101921.31;5029389;28;45351;-59
2022/04/28 06:17:58;;;;;;;;;33.50;27.50;;;;;11.72;51.49;101926.50;5024571;28;45376;-59
2022/04/28 06:20:24;;;;;;;;;44.25;33.25;;;;;11.75;51.17;101917.72;5026032;28;59335;-59
2022/04/28 06:22:49;;;;;;;;;44.50;30.75;;;;;11.78;51.05;101925.56;5029817;28;45340;-59
2022/04/28 06:25:15;;;;;;;;;49.50;39.00;;;;;11.78;51.07;101923.81;5032342;28;46013;-59
2022/04/28 06:27:40;;;;;;;;;48.50;36.00;;;;;11.81;50.93;101929.88;5038326;28;45464;-60
2022/04/28 06:30:06;;;;;;;;;48.75;35.50;;;;;11.83;51.02;101926.38;5036316;28;66102;-60
2022/04/28 06:32:32;;;;;;;;;43.00;29.75;;;;;11.89;50.99;101935.91;5031011;28;45331;-60
2022/04/28 06:34:57;;;;;;;;;44.00;33.75;;;;;11.87;50.93;101928.06;5037556;28;61161;-60
2022/04/28 06:37:23;;;;;;;;;44.75;35.25;;;;;11.93;50.94;101938.53;5038326;28;45323;-60
2022/04/28 06:39:48;;;;;;;;;43.75;33.75;;;;;11.95;50.84;101936.75;5030633;28;45446;-60
2022/04/28 06:42:13;;;;;;;;;49.50;34.00;;;;;11.99;50.78;101942.81;5027291;28;65008;-60
2022/04/28 06:44:39;;;;;;;;;42.00;35.25;;;;;12.04;50.64;101948.88;5032713;28;62319;-60
2022/04/28 06:47:07;;;;;;;;;46.00;35.50;;;;;12.07;50.82;101948.81;5037431;28;45692;-59
2022/04/28 06:49:33;;;;;;;;;34.25;29.50;;;;;12.12;51.05;101946.13;5035336;28;46040;-59
2022/04/28 06:51:59;;;;;;;;;41.25;33.25;;;;;12.18;50.67;101950.41;5037198;28;45405;-59
2022/04/28 06:54:24;;;;;;;;;48.25;36.50;;;;;12.21;51.20;101946.00;5038135;28;45417;-56
2022/04/28 06:56:50;;;;;;;;;42.75;36.00;;;;;12.27;50.96;101956.41;5029682;28;45348;-58
2022/04/28 06:59:15;;;;;;;;;41.50;33.50;;;;;12.33;50.72;101950.19;5033096;28;47837;-59
2022/04/28 07:01:40;;;;;;;;;48.50;35.25;;;;;12.39;50.54;101957.13;5035045;28;67193;-59
2022/04/28 07:04:06;;;;;;;;;49.00;35.00;;;;;12.43;50.81;101964.03;5027095;28;48705;-60
2022/04/28 07:06:31;;;;;;;;;38.75;35.25;;;;;12.48;50.55;101955.22;5035073;28;63933;-61
2022/04/28 07:08:57;;;;;;;;;50.50;36.50;;;;;12.54;50.38;101962.16;5026996;28;46899;-60
2022/04/28 07:11:24;;;;;;;;;44.75;35.00;;;;;12.59;50.38;101959.44;5029845;28;46728;-60
2022/04/28 07:13:49;;;;;;;;;41.50;33.50;;;;;12.65;50.09;101965.44;5031454;28;45407;-60
2022/04/28 07:16:15;;;;;;;;;50.25;38.00;;;;;12.72;50.36;101966.22;5036205;28;52391;-60
2022/04/28 07:18:40;;;;;;;;;50.00;36.75;;;;;12.77;50.39;101964.41;5029791;28;50077;-60
2022/04/28 07:21:05;;;;;;;;;50.25;35.75;;;;;12.82;50.32;101962.56;5025809;28;59415;-59
2022/04/28 07:23:31;;;;;;;;;45.75;36.25;;;;;12.90;50.40;101965.06;5029481;28;45848;-59
2022/04/28 07:25:56;;;;;;;;;49.75;34.75;;;;;12.99;49.97;101971.91;5037883;28;60264;-60
2022/04/28 07:28:22;;;;;;;;;53.00;38.00;;;;;13.05;49.97;101964.81;5030715;28;64073;-59
2022/04/28 07:30:47;;;;;;;;;44.75;34.75;;;;;13.14;50.32;101960.25;5033620;28;45563;-58
2022/04/28 07:33:12;;;;;;;;;51.50;36.00;;;;;13.24;50.06;101959.19;5028010;28;63864;-62
2022/04/28 07:35:38;;;;;;;;;51.50;39.00;;;;;13.34;49.83;101963.44;5027694;28;45477;-60
2022/04/28 07:38:04;;;;;;;;;46.25;34.25;;;;;13.42;49.86;101955.38;5030038;28;68693;-60
2022/04/28 07:40:29;;;;;;;;;50.00;38.00;;;;;13.55;49.58;101963.94;5036446;28;45596;-59
2022/04/28 07:42:55;;;;;;;;;43.25;36.25;;;;;13.64;49.66;101966.38;5023500;28;45507;-59
2022/04/28 07:45:21;;;;;;;;;60.00;44.25;;;;;13.72;49.51;101968.84;5038873;28;45344;-59
2022/04/28 07:47:46;;;;;;;;;62.75;48.00;;;;;13.82;49.24;101975.66;5033117;28;45447;-60
2022/04/28 07:50:11;;;;;;;;;45.75;35.00;;;;;13.92;49.07;101969.31;5038485;28;62385;-59
2022/04/28 07:52:40;;;;;;;;;46.00;35.50;;;;;13.99;48.92;101970.03;5033292;28;45311;-60
2022/04/28 07:55:06;;;;;;;;;49.00;37.00;;;;;14.12;48.74;101971.50;5036803;28;45236;-60
2022/04/28 07:57:31;;;;;;;;;48.25;37.50;;;;;14.24;48.43;101968.59;5024392;28;45930;-60
2022/04/28 07:59:57;;;;;;;;;41.50;33.25;;;;;14.39;48.59;101972.63;5027455;28;45304;-59
2022/04/28 08:02:22;;;;;;;;;47.25;36.50;;;;;14.56;48.26;101981.94;5033714;28;45208;-59
2022/04/28 08:04:48;;;;;;;;;49.75;37.75;;;;;14.69;48.32;101982.53;5030727;28;67718;-59
2022/04/28 08:07:13;;;;;;;;;47.75;36.75;;;;;14.84;47.71;101991.81;5038604;28;45233;-59
2022/04/28 08:09:38;;;;;;;;;50.25;34.25;;;;;14.95;47.60;101987.16;5035003;28;45237;-58
2022/04/28 08:12:05;;;;;;;;;51.25;34.00;;;;;15.08;47.39;101982.44;5036850;28;61475;-59
2022/04/28 08:14:32;;;;;;;;;42.50;35.50;;;;;15.20;47.64;101976.84;5024601;28;45609;-58
2022/04/28 08:16:58;;;;;;;;;47.75;34.75;;;;;15.33;47.26;101985.28;5030071;28;45578;-56
2022/04/28 08:19:23;;;;;;;;;36.00;30.25;;;;;15.46;46.98;101989.34;5034392;28;45446;-54
2022/04/28 08:21:49;;;;;;;;;46.75;36.00;;;;;15.55;46.38;101989.06;5035553;28;45443;-52
2022/04/28 08:24:14;;;;;;;;;41.00;34.25;;;;;15.64;46.73;101987.94;5033325;28;45642;-56
2022/04/28 08:26:40;;;;;;;;;47.50;34.75;;;;;15.74;46.71;101985.91;5038468;28;46044;-56
2022/04/28 08:29:05;;;;;;;;;42.50;33.00;;;;;15.84;46.25;101983.91;5024368;28;65319;-55
2022/04/28 08:31:31;;;;;;;;;45.25;34.75;;;;;15.92;46.28;101992.47;5030385;28;45312;-56
2022/04/28 08:33:56;;;;;;;;;51.75;38.00;;;;;16.00;45.97;101989.59;5029067;28;45486;-51
2022/04/28 08:36:22;;;;;;;;;38.75;33.00;;;;;16.09;45.88;101991.97;5035972;28;61505;-56
2022/04/28 08:38:47;;;;;;;;;36.25;32.00;;;;;16.10;45.60;101972.59;5025596;28;63568;-57
2022/04/28 08:41:14;;;;;;;;;34.00;31.50;;;;;16.32;45.58;101994.78;5023556;28;45700;-59
2022/04/28 08:43:40;;;;;;;;;40.25;32.00;;;;;16.46;44.95;101990.84;5032676;28;45451;-52
2022/04/28 08:48:54;;;;;;;;;33.50;30.75;;;;;16.55;44.85;101976.47;5035946;28;45955;-48
2022/04/28 08:51:19;;;;;;;;;37.75;30.25;;;;;16.81;44.62;101988.84;5032780;28;45440;-48
2022/04/28 08:53:47;;;;;;;;;33.75;28.25;;;;;16.91;44.20;101992.94;5030688;28;45786;-52
2022/04/28 08:56:12;;;;;;;;;34.00;28.50;;;;;17.03;43.80;101987.25;5035194;28;47266;-47
2022/04/28 08:58:38;;;;;;;;;35.00;31.75;;;;;17.18;43.94;101985.00;5028755;28;51052;-48
2022/04/28 09:01:03;;;;;;;;;40.75;32.50;;;;;17.34;43.55;101977.38;5038249;28;45498;-50
2022/04/28 09:03:29;;;;;;;;;35.50;29.50;;;;;17.52;43.58;101974.06;5033112;28;45460;-47
2022/04/28 09:05:55;;;;;;;;;38.75;31.00;;;;;17.68;43.22;101974.38;5025459;28;45529;-48
2022/04/28 09:08:20;;;;;;;;;32.50;28.25;;;;;17.84;42.94;101977.31;5027860;28;45418;-49
2022/04/28 09:10:45;;;;;;;;;37.50;30.75;;;;;18.09;43.12;101976.41;5035862;28;61309;-48
2022/04/28 09:15:56;;;;;;;;;44.25;31.50;;;;;19.39;41.15;101980.78;5026886;28;45877;-50
2022/04/28 09:18:22;;;;;;;;;32.25;29.75;;;;;20.02;40.22;101966.47;5030902;28;45356;-49
2022/04/28 09:20:47;;;;;;;;;33.50;28.25;;;;;20.73;39.60;101961.25;5040878;28;45344;-49
2022/04/28 09:23:13;;;;;;;;;37.50;29.25;;;;;21.46;38.76;101955.78;5034138;28;45498;-47
2022/04/28 09:25:39;;;;;;;;;35.50;25.25;;;;;22.20;37.62;101959.69;5038887;28;46164;-46
2022/04/28 09:28:04;;;;;;;;;23.25;20.75;;;;;22.74;37.72;101968.16;5018287;28;45443;-48
2022/04/28 09:30:56;;;;;;;;;25.25;21.50;;;;;23.78;36.15;101957.44;5037043;28;45220;-47
2022/04/28 09:33:24;;;;;;;;;27.00;24.00;;;;;24.86;34.00;101952.22;5032604;28;63981;-52
2022/04/28 09:35:50;;;;;;;;;25.75;24.25;;;;;25.74;32.43;101949.69;5041727;28;46399;-52
2022/04/28 09:38:16;;;;;;;;;25.75;22.25;;;;;26.60;31.96;101953.25;5036602;28;45467;-56
2022/04/28 09:43:30;;;;;;;;;28.00;26.00;;;;;29.12;29.53;101959.81;5035173;28;45448;-58
2022/04/28 09:45:57;;;;;;;;;24.50;21.00;;;;;29.64;28.45;101959.81;5038581;28;46086;-57
2022/04/28 09:48:24;;;;;;;;;23.25;21.00;;;;;30.06;29.00;101950.72;5034082;28;45372;-59
2022/04/28 09:50:50;;;;;;;;;27.25;22.75;;;;;31.20;26.65;101957.22;5040437;28;45667;-59
2022/04/28 09:53:15;;;;;;;;;23.25;21.25;;;;;31.89;25.82;101938.84;5036766;28;45473;-55
2022/04/28 09:55:41;;;;;;;;;21.75;18.00;;;;;31.51;25.95;101940.75;5021768;28;46085;-52
2022/04/28 09:58:08;;;;;;;;;17.75;16.75;;;;;30.72;26.23;101941.06;5033125;28;45256;-62
2022/04/28 10:00:34;;;;;;;;;22.00;20.50;;;;;29.79;24.84;101937.88;5027104;28;45523;-61
2022/04/28 10:03:02;;;;;;;;;22.25;20.25;;;;;29.20;26.00;101937.63;5034768;28;45293;-62
2022/04/28 10:05:28;;;;;;;;;21.25;17.50;;;;;29.21;26.48;101933.09;5034253;28;45762;-64
2022/04/28 10:07:53;;;;;;;;;22.00;19.75;;;;;29.73;24.97;101934.72;5034533;28;45425;-63
2022/04/28 10:10:19;;;;;;;;;19.75;17.50;;;;;30.37;25.19;101942.53;5040272;28;45439;-65
2022/04/28 10:12:44;;;;;;;;;21.25;17.50;;;;;30.28;25.47;101936.09;5032060;28;58156;-62
2022/04/28 10:15:11;;;;;;;;;19.50;16.75;;;;;29.88;24.84;101934.34;5038563;28;45379;-57
2022/04/28 10:17:46;;;;;;;;;18.00;16.25;;;;;29.69;25.34;101927.88;5032404;28;45865;-58
2022/04/28 10:20:35;;;;;;;;;18.50;16.75;;;;;29.25;24.88;101926.41;5037115;28;45640;-59
2022/04/28 10:23:02;;;;;;;;;19.25;17.50;;;;;28.88;25.38;101930.47;5026853;28;45273;-58
2022/04/28 10:34:12;;;;;;;;;16.75;16.25;;;;;30.06;23.19;101916.47;5034336;28;45308;-58
2022/04/28 10:37:00;;;;;;;;;16.75;16.25;;;;;30.35;24.52;101922.91;5041204;28;47053;-58
2022/04/28 10:39:38;;;;;;;;;13.00;12.25;;;;;30.66;23.79;101919.03;5036467;28;45695;-57
2022/04/28 10:42:42;;;;;;;;;13.75;13.00;;;;;31.25;23.36;101923.47;5038954;28;45478;-58
2022/04/28 10:45:25;;;;;;;;;15.50;15.50;;;;;30.86;23.64;101916.28;5028643;28;45362;-58
2022/04/28 10:48:16;;;;;;;;;20.25;14.00;;;;;30.32;23.59;101910.50;5034344;28;46131;-58
2022/04/28 10:50:41;;;;;;;;;13.50;12.75;;;;;30.23;20.80;101904.13;5036785;28;45346;-58
2022/04/28 10:53:07;;;;;;;;;16.00;12.00;;;;;30.33;24.08;101909.50;5034774;28;45665;-58
2022/04/28 10:55:33;;;;;;;;;13.50;11.25;;;;;30.35;23.45;101901.28;5023040;28;45293;-58
2022/04/28 10:58:24;;;;;;;;;14.25;11.25;;;;;29.63;23.39;101909.53;5035535;28;45453;-58
2022/04/28 11:00:53;;;;;;;;;14.75;14.00;;;;;28.76;24.23;101901.88;5037786;28;47197;-58
2022/04/28 11:03:51;;;;;;;;;15.75;13.75;;;;;28.02;24.42;101913.44;5033313;28;45367;-58
2022/04/28 11:06:21;;;;;;;;;13.75;13.75;;;;;27.39;25.12;101910.44;5039399;28;46886;-58
2022/04/28 11:08:53;;;;;;;;;13.25;12.25;;;;;26.92;25.04;101913.19;5038472;28;47508;-58
2022/04/28 11:11:19;;;;;;;;;18.00;15.00;;;;;26.52;25.70;101900.13;5040479;28;45640;-58
2022/04/28 11:13:49;;;;;;;;;12.00;11.00;;;;;26.22;25.44;101900.63;5030808;28;45402;-58
2022/04/28 11:16:16;;;;;;;;;12.75;11.50;;;;;25.90;26.15;101901.16;5026620;28;45646;-58
2022/04/28 11:18:43;;;;;;;;;10.00;9.75;;;;;25.63;26.00;101894.16;5030922;28;46206;-58
2022/04/28 11:21:08;;;;;;;;;15.00;12.00;;;;;25.48;25.85;101898.81;5037743;28;45300;-58
2022/04/28 11:23:44;;;;;;;;;11.25;11.25;;;;;25.41;26.20;101910.06;5036622;28;45407;-58
2022/04/28 11:26:10;;;;;;;;;17.00;10.00;;;;;25.28;26.45;101907.41;5038402;28;45163;-58
2022/04/28 11:28:35;;;;;;;;;10.00;10.00;;;;;25.14;26.28;101901.19;5037600;28;45993;-58
2022/04/28 11:31:01;;;;;;;;;12.75;10.75;;;;;24.99;26.21;101902.25;5051889;28;45339;-58
2022/04/28 11:33:26;;;;;;;;;12.50;10.00;;;;;24.85;26.51;101905.03;5026967;28;45257;-58
2022/04/28 11:35:52;;;;;;;;;14.00;9.25;;;;;24.68;26.41;101911.53;5036780;28;65099;-58
2022/04/28 11:38:31;;;;;;;;;12.00;10.00;;;;;24.49;26.38;101915.41;5034016;28;46946;-58
2022/04/28 11:41:03;;;;;;;;;11.75;8.50;;;;;24.31;26.42;101922.88;5038935;28;45686;-58
2022/04/28 11:43:31;;;;;;;;;9.00;8.00;;;;;24.15;26.38;101915.00;5034723;28;45407;-58
2022/04/28 11:45:57;;;;;;;;;11.50;9.00;;;;;24.04;26.18;101910.31;5036952;28;45242;-58